sensor_id;sensor_type;location;lat;lon;timestamp;pressure;altitude;pressure_sealevel;temperature;humidity
24962;BME280;12992;50.884;13.668;2023-10-13T00:00:32;97227.69;;;15.96;100.00
24962;BME280;12992;50.884;13.668;2023-10-13T00:03:06;97223.53;;;15.98;100.00
24962;BME280;12992;50.884;13.668;2023-10-13T00:05:33;97226.03;;;15.95;100.00
24962;BME280;12992;50.884;13.668;2023-10-13T00:08:00;97225.22;;;15.94;100.00
24962;BME280;12992;50.884;13.668;2023-10-13T00:10:32;97225.44;;;15.98;100.00
24962;BME280;12992;50.884;13.668;2023-10-13T00:12:59;97217.69;;;16.05;100.00
24962;BME280;12992;50.884;13.668;2023-10-13T00:15:47;97228.50;;;15.96;100.00
24962;BME280;12992;50.884;13.668;2023-10-13T00:18:31;97233.47;;;15.94;100.00
24962;BME280;12992;50.884;13.668;2023-10-13T00:21:03;97232.56;;;15.99;100.00
24962;BME280;12992;50.884;13.668;2023-10-13T00:23:40;97227.69;;;15.96;100.00
24962;BME280;12992;50.884;13.668;2023-10-13T00:26:18;97236.16;;;15.99;100.00
24962;BME280;12992;50.884;13.668;2023-10-13T00:28:48;97231.75;;;15.98;100.00
24962;BME280;12992;50.884;13.668;2023-10-13T00:31:24;97231.50;;;16.00;100.00
24962;BME280;12992;50.884;13.668;2023-10-13T00:33:51;97233.41;;;15.99;100.00
24962;BME280;12992;50.884;13.668;2023-10-13T00:36:21;97228.44;;;16.01;100.00
24962;BME280;12992;50.884;13.668;2023-10-13T00:38:46;97227.56;;;16.06;100.00
24962;BME280;12992;50.884;13.668;2023-10-13T00:41:19;97234.25;;;16.00;100.00
24962;BME280;12992;50.884;13.668;2023-10-13T00:43:59;97230.91;;;16.03;100.00
24962;BME280;12992;50.884;13.668;2023-10-13T00:46:34;97237.81;;;16.00;100.00
24962;BME280;12992;50.884;13.668;2023-10-13T00:49:01;97233.69;;;15.98;100.00
24962;BME280;12992;50.884;13.668;2023-10-13T00:51:30;97243.34;;;15.95;100.00
24962;BME280;12992;50.884;13.668;2023-10-13T00:54:02;97243.94;;;15.92;100.00
24962;BME280;12992;50.884;13.668;2023-10-13T00:56:31;97242.22;;;15.96;100.00
24962;BME280;12992;50.884;13.668;2023-10-13T00:58:56;97248.00;;;15.95;100.00
24962;BME280;12992;50.884;13.668;2023-10-13T01:01:27;97250.47;;;15.96;100.00
24962;BME280;12992;50.884;13.668;2023-10-13T01:03:58;97253.22;;;15.96;100.00
24962;BME280;12992;50.884;13.668;2023-10-13T01:06:25;97247.19;;;15.94;100.00
24962;BME280;12992;50.884;13.668;2023-10-13T01:09:03;97249.13;;;15.94;100.00
24962;BME280;12992;50.884;13.668;2023-10-13T01:11:38;97244.97;;;15.96;100.00
24962;BME280;12992;50.884;13.668;2023-10-13T01:14:03;97246.84;;;16.01;100.00
24962;BME280;12992;50.884;13.668;2023-10-13T01:16:29;97245.56;;;15.93;100.00
24962;BME280;12992;50.884;13.668;2023-10-13T01:18:55;97245.28;;;15.95;100.00
24962;BME280;12992;50.884;13.668;2023-10-13T01:21:25;97248.84;;;15.95;100.00
24962;BME280;12992;50.884;13.668;2023-10-13T01:23:53;97246.91;;;15.96;100.00
24962;BME280;12992;50.884;13.668;2023-10-13T01:26:19;97245.50;;;15.98;100.00
24962;BME280;12992;50.884;13.668;2023-10-13T01:28:52;97242.69;;;16.03;100.00
24962;BME280;12992;50.884;13.668;2023-10-13T01:31:21;97245.44;;;16.03;100.00
24962;BME280;12992;50.884;13.668;2023-10-13T01:33:52;97243.53;;;16.04;100.00
24962;BME280;12992;50.884;13.668;2023-10-13T01:36:22;97241.66;;;15.99;100.00
24962;BME280;12992;50.884;13.668;2023-10-13T01:38:49;97245.44;;;16.03;100.00
24962;BME280;12992;50.884;13.668;2023-10-13T01:41:49;97244.34;;;16.04;100.00
24962;BME280;12992;50.884;13.668;2023-10-13T01:44:24;97242.75;;;15.98;100.00
24962;BME280;12992;50.884;13.668;2023-10-13T01:46:49;97238.91;;;15.99;100.00
24962;BME280;12992;50.884;13.668;2023-10-13T01:49:16;97244.41;;;15.99;100.00
24962;BME280;12992;50.884;13.668;2023-10-13T01:51:41;97241.13;;;15.97;100.00
24962;BME280;12992;50.884;13.668;2023-10-13T01:54:08;97246.59;;;15.97;100.00
24962;BME280;12992;50.884;13.668;2023-10-13T01:56:37;97253.16;;;16.01;100.00
24962;BME280;12992;50.884;13.668;2023-10-13T01:59:08;97255.56;;;16.08;100.00
24962;BME280;12992;50.884;13.668;2023-10-13T02:01:34;97250.34;;;16.06;100.00
24962;BME280;12992;50.884;13.668;2023-10-13T02:04:01;97253.34;;;16.10;100.00
24962;BME280;12992;50.884;13.668;2023-10-13T02:06:31;97255.72;;;16.17;100.00
24962;BME280;12992;50.884;13.668;2023-10-13T02:09:00;97254.09;;;16.15;100.00
24962;BME280;12992;50.884;13.668;2023-10-13T02:11:30;97253.03;;;16.11;100.00
24962;BME280;12992;50.884;13.668;2023-10-13T02:13:56;97245.31;;;16.13;100.00
24962;BME280;12992;50.884;13.668;2023-10-13T02:16:22;97243.69;;;16.12;100.00
24962;BME280;12992;50.884;13.668;2023-10-13T02:18:50;97248.59;;;16.15;100.00
24962;BME280;12992;50.884;13.668;2023-10-13T02:21:19;97234.63;;;16.12;100.00
24962;BME280;12992;50.884;13.668;2023-10-13T02:23:44;97232.81;;;16.02;100.00
24962;BME280;12992;50.884;13.668;2023-10-13T02:26:25;97239.72;;;16.00;100.00
24962;BME280;12992;50.884;13.668;2023-10-13T02:28:58;97239.72;;;16.00;100.00
24962;BME280;12992;50.884;13.668;2023-10-13T02:31:25;97232.81;;;16.02;100.00
24962;BME280;12992;50.884;13.668;2023-10-13T02:33:50;97223.47;;;16.03;100.00
24962;BME280;12992;50.884;13.668;2023-10-13T02:36:16;97225.63;;;16.06;100.00
24962;BME280;12992;50.884;13.668;2023-10-13T02:38:48;97213.00;;;16.05;100.00
24962;BME280;12992;50.884;13.668;2023-10-13T02:41:17;97206.94;;;16.08;100.00
24962;BME280;12992;50.884;13.668;2023-10-13T02:43:53;97208.03;;;16.07;100.00
24962;BME280;12992;50.884;13.668;2023-10-13T02:46:20;97203.13;;;16.04;100.00
24962;BME280;12992;50.884;13.668;2023-10-13T02:48:48;97212.47;;;16.03;100.00
24962;BME280;12992;50.884;13.668;2023-10-13T02:51:19;97205.09;;;15.99;100.00
24962;BME280;12992;50.884;13.668;2023-10-13T02:53:48;97210.84;;;16.02;100.00
24962;BME280;12992;50.884;13.668;2023-10-13T02:56:15;97206.78;;;16.00;100.00
24962;BME280;12992;50.884;13.668;2023-10-13T02:58:49;97210.84;;;16.02;100.00
24962;BME280;12992;50.884;13.668;2023-10-13T03:01:19;97203.13;;;16.04;100.00
24962;BME280;12992;50.884;13.668;2023-10-13T03:03:47;97208.03;;;16.07;100.00
24962;BME280;12992;50.884;13.668;2023-10-13T03:06:16;97205.22;;;16.12;100.00
24962;BME280;12992;50.884;13.668;2023-10-13T03:08:41;97200.56;;;16.13;100.00
24962;BME280;12992;50.884;13.668;2023-10-13T03:11:09;97210.72;;;16.12;100.00
24962;BME280;12992;50.884;13.668;2023-10-13T03:13:35;97206.94;;;16.08;100.00
24962;BME280;12992;50.884;13.668;2023-10-13T03:16:10;97211.31;;;16.09;100.00
24962;BME280;12992;50.884;13.668;2023-10-13T03:18:36;97211.84;;;16.11;100.00
24962;BME280;12992;50.884;13.668;2023-10-13T03:21:01;97202.19;;;16.14;100.00
24962;BME280;12992;50.884;13.668;2023-10-13T03:23:27;97200.03;;;16.11;100.00
24962;BME280;12992;50.884;13.668;2023-10-13T03:25:53;97192.81;;;16.15;100.00
24962;BME280;12992;50.884;13.668;2023-10-13T03:28:21;97186.59;;;16.09;100.00
24962;BME280;12992;50.884;13.668;2023-10-13T03:30:50;97188.16;;;16.15;100.00
24962;BME280;12992;50.884;13.668;2023-10-13T03:33:18;97183.09;;;16.23;100.00
24962;BME280;12992;50.884;13.668;2023-10-13T03:35:51;97172.78;;;16.14;100.00
24962;BME280;12992;50.884;13.668;2023-10-13T03:38:20;97173.69;;;16.10;100.00
24962;BME280;12992;50.884;13.668;2023-10-13T03:40:49;97161.09;;;16.04;100.00
24962;BME280;12992;50.884;13.668;2023-10-13T03:43:20;97168.59;;;15.98;100.00
24962;BME280;12992;50.884;13.668;2023-10-13T03:45:50;97164.34;;;15.87;100.00
24962;BME280;12992;50.884;13.668;2023-10-13T03:48:26;97169.22;;;15.90;100.00
24962;BME280;12992;50.884;13.668;2023-10-13T03:50:53;97161.16;;;15.99;100.00
24962;BME280;12992;50.884;13.668;2023-10-13T03:53:34;97158.81;;;16.11;100.00
24962;BME280;12992;50.884;13.668;2023-10-13T03:56:05;97157.53;;;16.03;100.00
24962;BME280;12992;50.884;13.668;2023-10-13T03:58:38;97156.28;;;15.96;100.00
24962;BME280;12992;50.884;13.668;2023-10-13T04:01:04;97154.78;;;15.84;100.00
24962;BME280;12992;50.884;13.668;2023-10-13T04:03:31;97150.28;;;15.70;100.00
24962;BME280;12992;50.884;13.668;2023-10-13T04:06:05;97148.78;;;15.53;100.00
24962;BME280;12992;50.884;13.668;2023-10-13T04:08:41;97156.50;;;15.51;100.00
24962;BME280;12992;50.884;13.668;2023-10-13T04:11:32;97165.31;;;15.48;100.00
24962;BME280;12992;50.884;13.668;2023-10-13T04:14:27;97171.91;;;15.47;100.00
24962;BME280;12992;50.884;13.668;2023-10-13T04:17:11;97166.44;;;15.47;100.00
24962;BME280;12992;50.884;13.668;2023-10-13T04:19:43;97166.06;;;15.30;100.00
24962;BME280;12992;50.884;13.668;2023-10-13T04:22:27;97159.16;;;15.33;100.00
24962;BME280;12992;50.884;13.668;2023-10-13T04:28:20;97156.72;;;15.31;100.00
24962;BME280;12992;50.884;13.668;2023-10-13T04:31:00;97157.06;;;15.24;100.00
24962;BME280;12992;50.884;13.668;2023-10-13T04:33:37;97146.56;;;15.32;100.00
24962;BME280;12992;50.884;13.668;2023-10-13T04:36:17;97143.41;;;15.43;100.00
24962;BME280;12992;50.884;13.668;2023-10-13T04:38:55;97134.53;;;15.51;100.00
24962;BME280;12992;50.884;13.668;2023-10-13T04:41:28;97131.97;;;15.60;100.00
24962;BME280;12992;50.884;13.668;2023-10-13T04:44:01;97132.25;;;15.64;100.00
24962;BME280;12992;50.884;13.668;2023-10-13T04:46:30;97131.16;;;15.59;100.00
24962;BME280;12992;50.884;13.668;2023-10-13T04:49:22;97132.81;;;15.61;100.00
24962;BME280;12992;50.884;13.668;2023-10-13T04:51:58;97135.00;;;15.58;100.00
24962;BME280;12992;50.884;13.668;2023-10-13T04:54:28;97127.06;;;15.57;100.00
24962;BME280;12992;50.884;13.668;2023-10-13T04:57:18;97141.44;;;15.49;100.00
24962;BME280;12992;50.884;13.668;2023-10-13T05:00:01;97130.81;;;15.42;100.00
24962;BME280;12992;50.884;13.668;2023-10-13T05:02:41;97133.03;;;15.40;100.00
24962;BME280;12992;50.884;13.668;2023-10-13T05:05:10;97133.03;;;15.40;100.00
24962;BME280;12992;50.884;13.668;2023-10-13T05:07:51;97135.25;;;15.38;100.00
24962;BME280;12992;50.884;13.668;2023-10-13T05:10:36;97135.13;;;15.48;100.00
24962;BME280;12992;50.884;13.668;2023-10-13T05:13:20;97136.16;;;15.52;100.00
24962;BME280;12992;50.884;13.668;2023-10-13T05:16:04;97139.69;;;15.58;100.00
24962;BME280;12992;50.884;13.668;2023-10-13T05:18:48;97135.81;;;15.59;100.00
24962;BME280;12992;50.884;13.668;2023-10-13T05:21:32;97121.94;;;15.74;100.00
24962;BME280;12992;50.884;13.668;2023-10-13T05:24:16;97135.59;;;15.79;100.00
24962;BME280;12992;50.884;13.668;2023-10-13T05:27:00;97129.53;;;15.82;100.00
24962;BME280;12992;50.884;13.668;2023-10-13T05:29:46;97142.63;;;15.91;100.00
24962;BME280;12992;50.884;13.668;2023-10-13T05:32:31;97137.66;;;15.93;100.00
24962;BME280;12992;50.884;13.668;2023-10-13T05:35:15;97143.06;;;15.98;100.00
24962;BME280;12992;50.884;13.668;2023-10-13T05:38:00;97148.94;;;15.91;100.00
24962;BME280;12992;50.884;13.668;2023-10-13T05:40:58;97142.53;;;15.96;100.00
24962;BME280;12992;50.884;13.668;2023-10-13T05:43:42;97149.34;;;15.98;100.00
24962;BME280;12992;50.884;13.668;2023-10-13T05:46:27;97152.34;;;16.02;100.00
24962;BME280;12992;50.884;13.668;2023-10-13T05:48:53;97148.78;;;16.01;100.00
24962;BME280;12992;50.884;13.668;2023-10-13T05:51:29;97163.03;;;16.03;100.00
24962;BME280;12992;50.884;13.668;2023-10-13T05:53:57;97163.56;;;16.05;100.00
24962;BME280;12992;50.884;13.668;2023-10-13T05:56:42;97166.31;;;16.05;100.00
24962;BME280;12992;50.884;13.668;2023-10-13T05:59:27;97152.81;;;16.09;100.00
24962;BME280;12992;50.884;13.668;2023-10-13T06:02:12;97151.25;;;16.22;100.00
24962;BME280;12992;50.884;13.668;2023-10-13T06:04:56;97151.41;;;16.30;100.00
24962;BME280;12992;50.884;13.668;2023-10-13T06:07:40;97165.91;;;16.36;100.00
24962;BME280;12992;50.884;13.668;2023-10-13T06:10:24;97165.59;;;16.37;100.00
24962;BME280;12992;50.884;13.668;2023-10-13T06:13:08;97161.44;;;16.40;100.00
24962;BME280;12992;50.884;13.668;2023-10-13T06:15:52;97154.31;;;16.39;100.00
24962;BME280;12992;50.884;13.668;2023-10-13T06:18:36;97164.94;;;16.46;100.00
24962;BME280;12992;50.884;13.668;2023-10-13T06:21:20;97162.91;;;16.51;100.00
24962;BME280;12992;50.884;13.668;2023-10-13T06:24:05;97170.72;;;16.63;100.00
24962;BME280;12992;50.884;13.668;2023-10-13T06:26:49;97166.03;;;16.63;100.00
24962;BME280;12992;50.884;13.668;2023-10-13T06:29:33;97165.13;;;16.68;100.00
24962;BME280;12992;50.884;13.668;2023-10-13T06:31:58;97169.69;;;16.78;100.00
24962;BME280;12992;50.884;13.668;2023-10-13T06:34:27;97166.78;;;16.88;100.00
24962;BME280;12992;50.884;13.668;2023-10-13T06:37:14;97171.06;;;16.94;100.00
24962;BME280;12992;50.884;13.668;2023-10-13T06:40:03;97171.50;;;17.01;100.00
24962;BME280;12992;50.884;13.668;2023-10-13T06:42:48;97165.50;;;16.99;100.00
24962;BME280;12992;50.884;13.668;2023-10-13T06:45:13;97166.22;;;17.05;100.00
24962;BME280;12992;50.884;13.668;2023-10-13T06:47:42;97163.88;;;17.12;100.00
24962;BME280;12992;50.884;13.668;2023-10-13T06:50:11;97155.56;;;17.17;100.00
24962;BME280;12992;50.884;13.668;2023-10-13T06:52:47;97159.56;;;17.24;100.00
24962;BME280;12992;50.884;13.668;2023-10-13T06:55:13;97157.50;;;17.30;100.00
24962;BME280;12992;50.884;13.668;2023-10-13T06:57:46;97158.34;;;17.44;100.00
24962;BME280;12992;50.884;13.668;2023-10-13T07:00:12;97159.91;;;17.50;100.00
24962;BME280;12992;50.884;13.668;2023-10-13T07:02:46;97157.84;;;17.56;100.00
24962;BME280;12992;50.884;13.668;2023-10-13T07:05:12;97155.50;;;17.63;100.00
24962;BME280;12992;50.884;13.668;2023-10-13T07:07:39;97150.66;;;17.74;100.00
24962;BME280;12992;50.884;13.668;2023-10-13T07:10:12;97154.53;;;17.87;100.00
24962;BME280;12992;50.884;13.668;2023-10-13T07:12:38;97149.94;;;17.96;100.00
24962;BME280;12992;50.884;13.668;2023-10-13T07:15:09;97146.47;;;18.04;100.00
24962;BME280;12992;50.884;13.668;2023-10-13T07:17:43;97146.56;;;18.13;100.00
24962;BME280;12992;50.884;13.668;2023-10-13T07:20:10;97140.81;;;18.23;100.00
24962;BME280;12992;50.884;13.668;2023-10-13T07:22:54;97143.44;;;18.28;100.00
24962;BME280;12992;50.884;13.668;2023-10-13T07:25:32;97149.75;;;18.42;100.00
24962;BME280;12992;50.884;13.668;2023-10-13T07:28:01;97148.31;;;18.45;100.00
24962;BME280;12992;50.884;13.668;2023-10-13T07:30:26;97148.94;;;18.42;100.00
24962;BME280;12992;50.884;13.668;2023-10-13T07:32:53;97149.44;;;18.44;100.00
24962;BME280;12992;50.884;13.668;2023-10-13T07:35:20;97153.41;;;18.51;100.00
24962;BME280;12992;50.884;13.668;2023-10-13T07:37:50;97147.97;;;18.60;100.00
24962;BME280;12992;50.884;13.668;2023-10-13T07:40:18;97146.28;;;18.73;100.00
24962;BME280;12992;50.884;13.668;2023-10-13T07:42:56;97137.03;;;18.68;100.00
24962;BME280;12992;50.884;13.668;2023-10-13T07:45:29;97133.84;;;18.75;100.00
24962;BME280;12992;50.884;13.668;2023-10-13T07:48:04;97131.91;;;18.76;100.00
24962;BME280;12992;50.884;13.668;2023-10-13T07:50:37;97128.81;;;18.77;100.00
24962;BME280;12992;50.884;13.668;2023-10-13T07:53:03;97132.38;;;18.78;100.00
24962;BME280;12992;50.884;13.668;2023-10-13T07:55:39;97123.69;;;18.84;100.00
24962;BME280;12992;50.884;13.668;2023-10-13T07:58:05;97133.72;;;19.03;100.00
24962;BME280;12992;50.884;13.668;2023-10-13T08:00:33;97130.84;;;19.16;100.00
24962;BME280;12992;50.884;13.668;2023-10-13T08:03:15;97119.44;;;19.40;98.61
24962;BME280;12992;50.884;13.668;2023-10-13T08:05:44;97110.13;;;19.59;96.83
24962;BME280;12992;50.884;13.668;2023-10-13T08:08:28;97109.84;;;19.69;96.17
24962;BME280;12992;50.884;13.668;2023-10-13T08:13:40;97101.28;;;19.79;95.38
24962;BME280;12992;50.884;13.668;2023-10-13T08:16:14;97102.41;;;19.78;93.32
24962;BME280;12992;50.884;13.668;2023-10-13T08:18:50;97107.53;;;20.11;97.30
24962;BME280;12992;50.884;13.668;2023-10-13T08:21:16;97105.25;;;20.21;93.84
24962;BME280;12992;50.884;13.668;2023-10-13T08:23:49;97099.72;;;20.13;93.00
24962;BME280;12992;50.884;13.668;2023-10-13T08:26:20;97094.34;;;20.07;91.75
24962;BME280;12992;50.884;13.668;2023-10-13T08:28:56;97102.16;;;20.05;92.92
24962;BME280;12992;50.884;13.668;2023-10-13T08:31:22;97088.66;;;20.13;93.73
24962;BME280;12992;50.884;13.668;2023-10-13T08:33:48;97091.94;;;20.23;93.21
24962;BME280;12992;50.884;13.668;2023-10-13T08:36:14;97098.81;;;20.52;92.58
24962;BME280;12992;50.884;13.668;2023-10-13T08:38:55;97084.66;;;20.53;91.42
24962;BME280;12992;50.884;13.668;2023-10-13T08:41:24;97084.66;;;20.53;91.75
24962;BME280;12992;50.884;13.668;2023-10-13T08:43:50;97092.28;;;20.65;92.38
24962;BME280;12992;50.884;13.668;2023-10-13T08:46:17;97078.13;;;20.67;92.69
24962;BME280;12992;50.884;13.668;2023-10-13T08:48:57;97076.94;;;20.93;91.03
24962;BME280;12992;50.884;13.668;2023-10-13T08:51:40;97081.00;;;21.05;89.98
24962;BME280;12992;50.884;13.668;2023-10-13T08:54:15;97075.28;;;21.10;89.58
24962;BME280;12992;50.884;13.668;2023-10-13T08:57:00;97075.94;;;21.07;89.05
24962;BME280;12992;50.884;13.668;2023-10-13T08:59:45;97078.38;;;21.08;90.63
24962;BME280;12992;50.884;13.668;2023-10-13T09:02:21;97075.81;;;21.03;90.76
24962;BME280;12992;50.884;13.668;2023-10-13T09:04:48;97077.03;;;21.23;90.99
24962;BME280;12992;50.884;13.668;2023-10-13T09:07:25;97077.63;;;21.46;88.63
24962;BME280;12992;50.884;13.668;2023-10-13T09:09:51;97077.78;;;21.49;89.71
24962;BME280;12992;50.884;13.668;2023-10-13T09:14:53;97084.22;;;21.24;91.02
24962;BME280;12992;50.884;13.668;2023-10-13T09:17:29;97084.72;;;21.17;91.02
24962;BME280;12992;50.884;13.668;2023-10-13T09:20:03;97082.13;;;21.12;91.78
24962;BME280;12992;50.884;13.668;2023-10-13T09:22:51;97072.72;;;20.96;90.22
24962;BME280;12992;50.884;13.668;2023-10-13T09:25:34;97070.13;;;20.91;90.80
24962;BME280;12992;50.884;13.668;2023-10-13T09:28:15;97073.56;;;20.88;93.34
24962;BME280;12992;50.884;13.668;2023-10-13T09:30:47;97062.94;;;20.99;93.28
24962;BME280;12992;50.884;13.668;2023-10-13T09:33:13;97060.31;;;21.02;92.90
24962;BME280;12992;50.884;13.668;2023-10-13T09:35:44;97056.44;;;20.95;92.91
24962;BME280;12992;50.884;13.668;2023-10-13T09:38:15;97062.59;;;21.00;94.56
24962;BME280;12992;50.884;13.668;2023-10-13T09:40:42;97065.53;;;21.04;92.23
24962;BME280;12992;50.884;13.668;2023-10-13T09:43:18;97057.59;;;20.85;90.29
24962;BME280;12992;50.884;13.668;2023-10-13T09:45:48;97064.13;;;20.72;91.31
24962;BME280;12992;50.884;13.668;2023-10-13T09:51:00;97051.09;;;20.81;91.02
24962;BME280;12992;50.884;13.668;2023-10-13T09:53:26;97045.81;;;21.05;90.35
24962;BME280;12992;50.884;13.668;2023-10-13T09:56:01;97044.44;;;21.29;89.77
24962;BME280;12992;50.884;13.668;2023-10-13T09:58:41;97057.63;;;21.40;87.38
24962;BME280;12992;50.884;13.668;2023-10-13T10:01:19;97047.19;;;21.37;87.76
24962;BME280;12992;50.884;13.668;2023-10-13T10:04:09;97048.88;;;21.21;85.71
24962;BME280;12992;50.884;13.668;2023-10-13T10:06:37;97054.22;;;21.26;87.97
24962;BME280;12992;50.884;13.668;2023-10-13T10:09:12;97046.22;;;21.42;85.06
24962;BME280;12992;50.884;13.668;2023-10-13T10:17:38;97039.00;;;22.29;83.12
24962;BME280;12992;50.884;13.668;2023-10-13T10:20:05;97025.03;;;21.96;82.44
24962;BME280;12992;50.884;13.668;2023-10-13T10:22:40;97018.13;;;21.52;83.69
24962;BME280;12992;50.884;13.668;2023-10-13T10:25:14;97016.75;;;21.29;85.65
24962;BME280;12992;50.884;13.668;2023-10-13T10:27:56;97019.06;;;21.18;86.13
24962;BME280;12992;50.884;13.668;2023-10-13T10:30:28;97013.56;;;21.09;86.56
24962;BME280;12992;50.884;13.668;2023-10-13T10:32:57;97003.31;;;21.01;87.28
24962;BME280;12992;50.884;13.668;2023-10-13T10:35:27;97022.41;;;20.94;87.93
24962;BME280;12992;50.884;13.668;2023-10-13T10:38:07;97017.22;;;20.84;88.23
24962;BME280;12992;50.884;13.668;2023-10-13T10:40:52;97016.25;;;20.80;87.90
24962;BME280;12992;50.884;13.668;2023-10-13T10:43:26;97016.28;;;20.71;89.84
24962;BME280;12992;50.884;13.668;2023-10-13T10:45:52;96999.84;;;20.66;88.71
24962;BME280;12992;50.884;13.668;2023-10-13T10:48:18;97003.75;;;20.65;90.93
24962;BME280;12992;50.884;13.668;2023-10-13T10:50:54;96996.22;;;20.74;89.46
24962;BME280;12992;50.884;13.668;2023-10-13T10:53:23;96999.16;;;20.86;90.64
24962;BME280;12992;50.884;13.668;2023-10-13T10:56:08;96978.25;;;20.98;90.70
24962;BME280;12992;50.884;13.668;2023-10-13T10:58:48;96982.91;;;21.14;89.47
24962;BME280;12992;50.884;13.668;2023-10-13T11:01:14;96981.69;;;21.92;88.08
24962;BME280;12992;50.884;13.668;2023-10-13T11:04:03;96975.50;;;22.49;82.72
24962;BME280;12992;50.884;13.668;2023-10-13T11:06:45;96968.44;;;22.51;80.72
24962;BME280;12992;50.884;13.668;2023-10-13T11:09:12;96961.09;;;22.68;80.30
24962;BME280;12992;50.884;13.668;2023-10-13T11:11:46;96957.69;;;22.83;79.15
24962;BME280;12992;50.884;13.668;2023-10-13T11:14:28;96946.50;;;23.28;78.02
24962;BME280;12992;50.884;13.668;2023-10-13T11:16:56;96955.41;;;23.58;75.48
24962;BME280;12992;50.884;13.668;2023-10-13T11:19:39;96935.53;;;23.44;75.46
24962;BME280;12992;50.884;13.668;2023-10-13T11:22:12;96937.03;;;23.29;76.00
24962;BME280;12992;50.884;13.668;2023-10-13T11:24:55;96936.31;;;23.44;76.01
24962;BME280;12992;50.884;13.668;2023-10-13T11:27:28;96926.47;;;23.47;74.77
24962;BME280;12992;50.884;13.668;2023-10-13T11:30:09;96925.69;;;23.34;75.84
24962;BME280;12992;50.884;13.668;2023-10-13T11:32:38;96923.38;;;23.24;75.54
24962;BME280;12992;50.884;13.668;2023-10-13T11:35:08;96925.16;;;22.83;77.68
24962;BME280;12992;50.884;13.668;2023-10-13T11:37:46;96930.19;;;22.45;78.38
24962;BME280;12992;50.884;13.668;2023-10-13T11:40:21;96932.94;;;22.12;80.63
24962;BME280;12992;50.884;13.668;2023-10-13T11:43:06;96929.19;;;21.87;81.15
24962;BME280;12992;50.884;13.668;2023-10-13T11:45:39;96909.59;;;21.50;80.58
24962;BME280;12992;50.884;13.668;2023-10-13T11:48:19;96919.44;;;21.39;81.85
24962;BME280;12992;50.884;13.668;2023-10-13T11:50:59;96908.44;;;21.30;83.61
24962;BME280;12992;50.884;13.668;2023-10-13T11:53:24;96915.25;;;21.33;83.64
24962;BME280;12992;50.884;13.668;2023-10-13T11:55:52;96913.91;;;21.39;82.13
24962;BME280;12992;50.884;13.668;2023-10-13T11:58:18;96912.88;;;21.43;81.45
24962;BME280;12992;50.884;13.668;2023-10-13T12:00:43;96913.97;;;21.51;82.88
24962;BME280;12992;50.884;13.668;2023-10-13T12:03:46;96910.75;;;21.49;81.10
24962;BME280;12992;50.884;13.668;2023-10-13T12:06:31;96904.88;;;21.51;81.09
24962;BME280;12992;50.884;13.668;2023-10-13T12:09:07;96890.25;;;21.41;81.40
24962;BME280;12992;50.884;13.668;2023-10-13T12:11:45;96907.97;;;21.49;82.27
24962;BME280;12992;50.884;13.668;2023-10-13T12:14:12;96891.28;;;21.58;79.05
24962;BME280;12992;50.884;13.668;2023-10-13T12:17:06;96884.38;;;21.64;77.47
24962;BME280;12992;50.884;13.668;2023-10-13T12:19:36;96872.81;;;21.62;77.09
24962;BME280;12992;50.884;13.668;2023-10-13T12:22:04;96872.22;;;21.56;76.08
24962;BME280;12992;50.884;13.668;2023-10-13T12:24:33;96878.91;;;21.55;76.70
24962;BME280;12992;50.884;13.668;2023-10-13T12:27:05;96888.84;;;21.56;78.90
24962;BME280;12992;50.884;13.668;2023-10-13T12:29:47;96867.50;;;21.57;77.62
24962;BME280;12992;50.884;13.668;2023-10-13T12:32:14;96866.75;;;21.68;76.70
24962;BME280;12992;50.884;13.668;2023-10-13T12:34:40;96871.00;;;21.87;75.94
24962;BME280;12992;50.884;13.668;2023-10-13T12:37:25;96865.41;;;22.28;75.77
24962;BME280;12992;50.884;13.668;2023-10-13T12:40:13;96843.59;;;22.64;71.50
24962;BME280;12992;50.884;13.668;2023-10-13T12:42:58;96841.06;;;22.83;71.50
24962;BME280;12992;50.884;13.668;2023-10-13T12:45:43;96842.38;;;22.98;71.39
24962;BME280;12992;50.884;13.668;2023-10-13T12:48:28;96846.13;;;23.30;70.04
24962;BME280;12992;50.884;13.668;2023-10-13T12:51:12;96830.72;;;23.85;68.57
24962;BME280;12992;50.884;13.668;2023-10-13T12:53:47;96841.06;;;24.28;67.73
24962;BME280;12992;50.884;13.668;2023-10-13T12:56:13;96828.22;;;25.34;64.32
24962;BME280;12992;50.884;13.668;2023-10-13T12:58:39;96811.47;;;25.88;62.25
24962;BME280;12992;50.884;13.668;2023-10-13T13:01:04;96806.56;;;25.82;61.76
24962;BME280;12992;50.884;13.668;2023-10-13T13:03:32;96809.19;;;25.55;61.54
24962;BME280;12992;50.884;13.668;2023-10-13T13:05:58;96797.81;;;25.09;61.25
24962;BME280;12992;50.884;13.668;2023-10-13T13:08:24;96795.84;;;24.94;63.31
24962;BME280;12992;50.884;13.668;2023-10-13T13:10:50;96798.19;;;24.61;64.07
24962;BME280;12992;50.884;13.668;2023-10-13T13:13:16;96777.72;;;24.37;62.38
24962;BME280;12992;50.884;13.668;2023-10-13T13:15:49;96793.19;;;24.07;65.93
24962;BME280;12992;50.884;13.668;2023-10-13T13:18:14;96789.31;;;23.95;65.73
24962;BME280;12992;50.884;13.668;2023-10-13T13:20:40;96789.13;;;23.88;64.75
24962;BME280;12992;50.884;13.668;2023-10-13T13:23:09;96785.81;;;23.98;64.52
24962;BME280;12992;50.884;13.668;2023-10-13T13:25:37;96770.84;;;24.03;63.35
24962;BME280;12992;50.884;13.668;2023-10-13T13:28:08;96765.19;;;23.99;62.97
24962;BME280;12992;50.884;13.668;2023-10-13T13:30:35;96764.69;;;23.82;64.28
24962;BME280;12992;50.884;13.668;2023-10-13T13:33:03;96774.66;;;23.83;65.20